AirNav   Everest Fuels
 
 417 users online  

CT59 Good Hill Farm Airport
Roxbury, Connecticut, USA

GOING TO ROXBURY?


FAA INFORMATION EFFECTIVE 15 JULY 2021

Location

FAA Identifier: CT59
Lat/Long: 41-33-12.0500N 073-15-40.4300W
41-33.200833N 073-15.673833W
41.5533472,-73.2612306
(estimated)
Elevation: 951 ft. / 290 m (estimated)
Variation: 14W (1985)
From city: 3 miles E of ROXBURY, CT
Time zone: UTC -4 (UTC -5 during Standard Time)
Zip code: 06783

Airport Operations

Airport use: Private use. Permission required prior to landing
Activation date: 02/1972
Control tower: no
ARTCC: NEW YORK CENTER
FSS: BRIDGEPORT FLIGHT SERVICE STATION
Attendance: UNATNDD
Wind indicator: yes
Segmented circle: no

Airport Communications

WX AWOS-3PT at OXC (7 nm SE): 132.975 (203-262-1190)
WX ASOS at DXR (15 nm SW): 127.75 (203-791-8227)
WX ASOS at MMK (20 nm E): 134.925 (203-639-9405)

Nearby radio navigation aids

VOR radial/distance  VOR name  Freq  Var
PWLr142/20.0PAWLING VOR/DME114.3012W
CMKr053/21.8CARMEL VOR/DME116.6012W
BDRr357/24.4BRIDGEPORT VOR/DME108.8012W
IGNr117/26.1KINGSTON VOR/DME117.6012W
MADr312/29.4MADISON VOR/DME110.4013W
HFDr274/32.5HARTFORD VOR/DME114.9013W

 
NDB name  Hdg/Dist  Freq  Var  ID
STANWYCK100/35.226112WSKU ... -.- ..-

Airport Services

Airframe service: NONE
Powerplant service: NONE

Runway Information

Runway N/S

Dimensions: 2700 x 200 ft. / 823 x 61 m
Surface: turf
RUNWAY N  RUNWAY S
Traffic pattern: leftleft
Obstructions: treestrees

Airport Ownership and Management from official FAA records

Ownership: Privately-owned
Owner: GOOD HILL FARM, LLC
415 MAIN STREET NORTH, P.O. BOX 579
BETHLEHEM, CT 06751
Phone 203-266-5221
Manager: CONNIE SHERMAN
415 MAIN STREET NORTH, P.O. BOX 579
BETHLEHEM, CT 06751
Phone 203-266-5221

Airport Operational Statistics

Aircraft based on the field: 2
Single engine airplanes: 2
    

Additional Remarks

OWNER DOES DESIRE ARPT TO BE CHARTED.
FOR CD CTC NEW YORK APCH AT 516-683-2449.

Instrument Procedures

There are no published instrument procedures at CT59.

Some nearby airports with instrument procedures:

KOXC - Waterbury-Oxford Airport (7 nm SE)
KDXR - Danbury Municipal Airport (15 nm SW)
4B8 - Robertson Field Airport (20 nm NE)
KMMK - Meriden Markham Municipal Airport (20 nm E)
44N - Sky Acres Airport (23 nm NW)
 
Loc | Ops | Rwys | IFR | FBO | Links
Com | Nav | Svcs | Stats | Notes

Silver City Flying Club
 
Area around CT59 (Good Hill Farm Airport)
 
Road maps at: MapQuest Bing Google
 
Aerial photo
No photo
 
Sectional chart

 
Airport distance calculator
Flying to Good Hill Farm Airport? Find the distance to fly.

From to CT59

Sunrise and sunset
Times for 24-Jul-2021
 Local
(UTC-4)
 Zulu
(UTC)
Morning civil twilight05:0909:09
Sunrise05:4109:41
Sunset20:1800:18
Evening civil twilight20:5000:50

Current date and time
Zulu (UTC)  24-Jul-2021 08:16:38
Local (UTC-4)  24-Jul-2021 04:16:38
 
METAR
KOXC 
8nm SE 
240751Z AUTO 34004KT 10SM CLR 14/14 A3012 RMK AO2 SLP208 T01440144
KDXR 
15nm SW 
240753Z AUTO 22003KT 10SM CLR 15/13 A3013 RMK AO2 SLP198 T01500133
KMMK 
19nm E 
240753Z AUTO 00000KT 10SM CLR 16/14 A3010 RMK AO2 SLP191 T01560139 $
TAF
KBDR 
24nm S 
240532Z 2406/2506 VRB03KT P6SM FEW150 FM241500 15008KT P6SM FEW250 FM250100 17007KT P6SM FEW250
KPOU 
28nm W 
240525Z 2406/2506 00000KT P6SM SKC TEMPO 2408/2412 3SM BR FEW005 FM241800 16005KT P6SM FEW050 SCT250 FM250500 18004KT P6SM OVC070
NOTAMs
Click for the latest NOTAMs
NOTAMs are issued by the DoD/FAA and will open in a separate window not controlled by AirNav.

 

 
 

Would you like to see your business listed on this page?

 If your business provides an interesting product or service to pilots, flight crews, aircraft, or users of the Good Hill Farm Airport, you should consider listing it here.  To start the listing process, click on the button below
 
Add a business
 

Other Pages about Good Hill Farm Airport

Update a link
 
Copyright © AirNav, LLC. All rights reserved. Privacy Policy  Contact